Time;durP1;ratioP1;P1;durP2;ratioP2;P2;SDS_P1;SDS_P2;PMS_P1;PMS_P2;Temp;Humidity;BMP_temperature;BMP_pressure;BME280_temperature;BME280_humidity;BME280_pressure;Samples;Min_cycle;Max_cycle;Signal;HPM_P1;HPM_P2
2023/08/13 00:01:07;;;;;;;66.30;61.67;;;15.20;99.90;;;;;;5128673;27;20246;-80
2023/08/13 00:03:33;;;;;;;74.65;69.47;;;15.20;99.90;;;;;;5111095;27;20080;-80
2023/08/13 00:05:59;;;;;;;68.53;63.70;;;15.10;99.90;;;;;;5111424;27;20109;-80
2023/08/13 00:08:24;;;;;;;95.03;88.50;;;15.10;99.90;;;;;;5111331;27;20031;-79
2023/08/13 00:10:50;;;;;;;69.70;65.10;;;15.10;99.90;;;;;;5128754;27;20095;-80
2023/08/13 00:13:16;;;;;;;63.95;59.25;;;15.10;99.90;;;;;;5094207;28;20042;-80
2023/08/13 00:15:42;;;;;;;66.50;61.53;;;15.10;99.90;;;;;;5128423;27;20079;-80
2023/08/13 00:18:08;;;;;;;56.13;51.63;;;15.10;99.90;;;;;;5110961;28;20043;-80
2023/08/13 00:20:34;;;;;;;62.33;58.17;;;15.10;99.90;;;;;;5110831;28;20059;-80
2023/08/13 00:23:00;;;;;;;70.90;66.25;;;15.10;99.90;;;;;;5111539;28;20510;-79
2023/08/13 00:25:25;;;;;;;82.95;77.10;;;15.10;99.90;;;;;;5128378;27;20093;-80
2023/08/13 00:27:51;;;;;;;67.82;63.15;;;15.10;99.90;;;;;;5129618;28;20130;-80
2023/08/13 00:30:17;;;;;;;74.22;69.03;;;15.10;99.90;;;;;;5111283;28;20400;-79
2023/08/13 00:32:43;;;;;;;85.75;80.05;;;15.10;99.90;;;;;;5110710;28;20043;-79
2023/08/13 00:35:09;;;;;;;61.65;56.92;;;15.10;99.90;;;;;;5129588;28;20046;-80
2023/08/13 00:37:35;;;;;;;81.18;75.50;;;15.10;99.90;;;;;;5111174;28;20039;-80
2023/08/13 00:40:04;;;;;;;67.63;63.03;;;15.10;99.90;;;;;;5098730;27;20031;-80
2023/08/13 00:42:29;;;;;;;77.20;71.43;;;15.10;99.90;;;;;;5134421;27;20039;-80
2023/08/13 00:44:55;;;;;;;68.13;63.45;;;15.10;99.90;;;;;;5118245;27;20031;-80
2023/08/13 00:47:21;;;;;;;79.28;73.90;;;15.30;99.90;;;;;;5118313;27;20226;-80
2023/08/13 00:49:48;;;;;;;74.00;68.90;;;15.00;99.90;;;;;;5118458;27;20396;-79
2023/08/13 00:52:14;;;;;;;90.25;83.82;;;15.00;99.90;;;;;;5135968;27;20045;-80
2023/08/13 00:54:40;;;;;;;75.80;70.63;;;15.10;99.90;;;;;;5118669;27;20042;-80
2023/08/13 00:57:06;;;;;;;66.22;61.65;;;15.10;99.90;;;;;;5133563;27;20066;-79
2023/08/13 00:59:33;;;;;;;62.08;57.63;;;15.10;99.90;;;;;;5134519;27;20038;-80
2023/08/13 01:01:59;;;;;;;67.07;62.55;;;15.10;99.90;;;;;;5118392;27;20166;-80
2023/08/13 01:04:25;;;;;;;86.45;80.88;;;15.10;99.90;;;;;;5153963;27;20263;-80
2023/08/13 01:07:19;;;;;;;83.05;76.95;;;15.10;99.90;;;;;;5135298;27;20379;-80
2023/08/13 01:09:47;;;;;;;71.90;66.82;;;15.10;99.90;;;;;;5135192;27;20503;-80
2023/08/13 01:12:27;;;;;;;69.43;64.50;;;15.10;99.90;;;;;;5135155;27;20145;-79
2023/08/13 01:15:05;;;;;;;79.15;73.78;;;15.10;99.90;;;;;;5117819;27;20043;-80
2023/08/13 01:17:33;;;;;;;73.53;68.85;;;15.10;99.90;;;;;;5135012;27;20049;-80
2023/08/13 01:19:59;;;;;;;77.55;72.60;;;15.20;99.90;;;;;;5117814;27;20113;-80
2023/08/13 01:22:28;;;;;;;84.15;78.15;;;15.10;99.90;;;;;;5135764;27;20035;-79
2023/08/13 01:24:55;;;;;;;62.80;58.60;;;15.10;99.90;;;;;;5114524;27;20050;-79
2023/08/13 01:27:30;;;;;;;91.13;84.95;;;15.00;99.90;;;;;;5097392;27;20046;-80
2023/08/13 01:30:04;;;;;;;86.95;80.10;;;15.00;99.90;;;;;;5114036;27;20050;-80
2023/08/13 01:32:36;;;;;;;85.95;80.20;;;15.00;99.90;;;;;;5133039;27;20039;-80
2023/08/13 01:35:02;;;;;;;78.10;72.50;;;15.00;99.90;;;;;;5114415;27;20038;-80
2023/08/13 01:37:28;;;;;;;75.00;69.90;;;14.90;99.90;;;;;;5133918;27;20072;-80
2023/08/13 01:39:54;;;;;;;82.13;76.60;;;15.00;99.90;;;;;;5134909;27;20476;-80
2023/08/13 01:42:20;;;;;;;67.18;62.63;;;15.00;99.90;;;;;;5134911;27;20042;-80
2023/08/13 01:44:45;;;;;;;70.47;65.55;;;15.00;99.90;;;;;;5117229;27;20042;-80
2023/08/13 01:47:11;;;;;;;70.22;64.88;;;15.10;99.90;;;;;;5134879;27;20492;-79
2023/08/13 01:49:37;;;;;;;90.70;84.07;;;15.20;99.90;;;;;;5117425;27;20046;-79
2023/08/13 01:52:03;;;;;;;81.07;75.30;;;15.00;99.90;;;;;;5115256;27;20043;-80
2023/08/13 01:54:28;;;;;;;85.15;79.55;;;15.10;99.90;;;;;;5097007;27;20043;-80
2023/08/13 01:56:54;;;;;;;86.32;80.75;;;15.10;99.90;;;;;;5113724;27;20039;-80
2023/08/13 01:59:20;;;;;;;65.50;60.60;;;15.10;99.90;;;;;;5113646;27;20051;-79
2023/08/13 02:01:45;;;;;;;80.00;74.63;;;15.10;99.90;;;;;;5113665;27;20028;-80
2023/08/13 02:04:11;;;;;;;69.68;64.65;;;15.20;99.90;;;;;;5114245;27;20122;-80
2023/08/13 02:06:37;;;;;;;99.30;92.75;;;15.20;99.90;;;;;;5126044;27;20039;-79
2023/08/13 02:09:02;;;;;;;71.38;66.13;;;15.20;99.90;;;;;;5130816;27;20035;-80
2023/08/13 02:11:29;;;;;;;68.15;63.22;;;15.30;99.90;;;;;;5113502;27;20104;-80
2023/08/13 02:13:54;;;;;;;79.93;74.15;;;15.30;99.90;;;;;;5112878;27;20306;-79
2023/08/13 02:16:20;;;;;;;57.80;53.03;;;15.40;99.90;;;;;;5147799;27;20038;-79
2023/08/13 02:18:46;;;;;;;66.20;60.95;;;15.40;99.90;;;;;;5132259;27;20035;-80
2023/08/13 02:21:12;;;;;;;71.63;65.60;;;15.30;99.90;;;;;;5135184;27;20055;-80
2023/08/13 02:23:37;;;;;;;83.45;77.28;;;15.40;99.90;;;;;;5113278;27;20413;-79
2023/08/13 02:26:03;;;;;;;74.60;68.93;;;15.40;99.90;;;;;;5113478;27;20054;-80
2023/08/13 02:28:28;;;;;;;81.97;75.82;;;15.40;99.90;;;;;;5130926;27;20472;-80
2023/08/13 02:30:54;;;;;;;63.42;58.83;;;15.40;99.90;;;;;;5113378;27;20031;-80
2023/08/13 02:33:20;;;;;;;75.35;69.57;;;15.40;99.90;;;;;;5096062;27;20039;-80
2023/08/13 02:35:45;;;;;;;91.53;84.93;;;15.30;99.90;;;;;;5112826;27;20035;-80
2023/08/13 02:38:11;;;;;;;71.70;66.03;;;15.30;99.90;;;;;;5131458;27;20043;-80
2023/08/13 02:40:37;;;;;;;73.75;68.22;;;15.30;99.90;;;;;;5112624;27;20088;-80
2023/08/13 02:43:03;;;;;;;79.85;74.05;;;15.20;99.90;;;;;;5129575;27;20042;-79
2023/08/13 02:45:29;;;;;;;57.63;53.13;;;15.20;99.90;;;;;;5096067;27;20228;-80
2023/08/13 02:47:56;;;;;;;100.20;93.13;;;15.20;99.90;;;;;;5129918;27;20099;-79
2023/08/13 02:50:22;;;;;;;97.47;90.70;;;15.10;99.90;;;;;;5125233;27;20041;-80
2023/08/13 02:52:48;;;;;;;82.60;76.43;;;15.10;99.90;;;;;;5151538;27;20488;-80
2023/08/13 02:55:13;;;;;;;100.72;93.32;;;15.00;99.90;;;;;;5116413;27;20045;-79
2023/08/13 02:57:39;;;;;;;70.63;65.22;;;15.10;99.90;;;;;;5151172;27;20031;-79
2023/08/13 03:00:06;;;;;;;89.28;83.20;;;15.10;99.90;;;;;;5115886;27;20046;-80
2023/08/13 03:02:31;;;;;;;92.82;86.90;;;15.00;99.90;;;;;;5133348;27;20328;-80
2023/08/13 03:04:57;;;;;;;89.15;82.60;;;15.10;99.90;;;;;;5120567;27;20035;-80
2023/08/13 03:07:23;;;;;;;88.43;82.00;;;15.10;99.90;;;;;;5095283;27;20496;-80
2023/08/13 03:09:49;;;;;;;90.65;84.55;;;15.00;99.90;;;;;;5112631;27;20039;-80
2023/08/13 03:12:15;;;;;;;91.32;84.63;;;15.00;99.90;;;;;;5094894;27;20092;-79
2023/08/13 03:14:41;;;;;;;93.50;86.93;;;14.90;99.90;;;;;;5112331;27;20040;-80
2023/08/13 03:17:07;;;;;;;79.45;73.25;;;14.90;99.90;;;;;;5129458;27;20118;-80
2023/08/13 03:19:33;;;;;;;93.50;86.93;;;15.00;99.90;;;;;;5121656;27;20263;-80
2023/08/13 03:21:59;;;;;;;87.00;80.50;;;14.90;99.90;;;;;;5115647;27;20472;-80
2023/08/13 03:24:24;;;;;;;85.05;79.28;;;14.90;99.90;;;;;;5132078;27;20035;-80
2023/08/13 03:26:50;;;;;;;86.82;81.00;;;14.80;99.90;;;;;;5132465;27;20122;-80
2023/08/13 03:29:16;;;;;;;96.30;89.53;;;14.80;99.90;;;;;;5132749;27;20035;-80
2023/08/13 03:31:41;;;;;;;82.90;77.05;;;14.80;99.90;;;;;;5115248;27;20046;-80
2023/08/13 03:34:07;;;;;;;81.93;76.00;;;14.80;99.90;;;;;;5132283;27;20035;-80
2023/08/13 03:36:32;;;;;;;78.68;72.65;;;14.80;99.90;;;;;;5132450;27;20030;-80
2023/08/13 03:38:58;;;;;;;81.93;74.90;;;14.70;99.90;;;;;;5150383;27;20113;-80
2023/08/13 03:41:24;;;;;;;88.97;82.55;;;14.70;99.90;;;;;;5115136;27;20035;-80
2023/08/13 03:43:49;;;;;;;82.57;76.38;;;14.70;99.90;;;;;;5132601;27;20038;-80
2023/08/13 03:46:15;;;;;;;86.07;79.97;;;14.60;99.90;;;;;;5115450;27;20198;-79
2023/08/13 03:48:41;;;;;;;87.35;81.00;;;14.60;99.90;;;;;;5133152;27;20033;-80
2023/08/13 03:51:06;;;;;;;82.53;76.78;;;14.60;99.90;;;;;;5132311;27;20091;-79
2023/08/13 03:53:32;;;;;;;74.03;68.63;;;14.60;99.90;;;;;;5131850;27;20050;-80
2023/08/13 03:55:57;;;;;;;81.38;75.07;;;14.50;99.90;;;;;;5132243;27;20039;-80
2023/08/13 03:58:24;;;;;;;80.20;74.05;;;14.60;99.90;;;;;;5132020;27;20082;-80
2023/08/13 04:00:50;;;;;;;79.30;73.82;;;14.50;99.90;;;;;;5132227;27;20125;-80
2023/08/13 04:03:15;;;;;;;87.53;81.03;;;14.60;99.90;;;;;;5155938;27;20066;-80
2023/08/13 04:05:41;;;;;;;82.43;76.43;;;14.50;99.90;;;;;;5152127;27;20030;-80
2023/08/13 04:08:06;;;;;;;78.68;73.03;;;14.60;99.90;;;;;;5171304;27;20074;-80
2023/08/13 04:10:32;;;;;;;85.10;78.97;;;14.50;99.90;;;;;;5152782;27;20268;-80
2023/08/13 04:13:00;;;;;;;82.40;75.55;;;14.50;99.90;;;;;;5152671;27;20049;-80
2023/08/13 04:15:26;;;;;;;76.25;69.95;;;14.60;99.90;;;;;;5152589;27;20038;-80
2023/08/13 04:17:52;;;;;;;81.03;75.18;;;14.50;99.90;;;;;;5135090;27;20117;-80
2023/08/13 04:20:18;;;;;;;74.60;68.63;;;14.60;99.90;;;;;;5134604;27;20563;-80
2023/08/13 04:22:45;;;;;;;82.03;75.93;;;14.60;99.90;;;;;;5134689;27;20528;-80
2023/08/13 04:25:11;;;;;;;83.10;77.35;;;14.70;99.90;;;;;;5135205;27;20502;-80
2023/08/13 04:27:36;;;;;;;82.10;76.65;;;14.80;99.90;;;;;;5171246;27;20036;-80
2023/08/13 04:30:02;;;;;;;79.68;74.00;;;14.80;99.90;;;;;;5152608;27;20438;-80
2023/08/13 04:32:28;;;;;;;77.93;71.60;;;14.90;99.90;;;;;;5152364;27;20038;-79
2023/08/13 04:34:54;;;;;;;98.38;91.28;;;15.00;99.90;;;;;;5133091;27;20046;-80
2023/08/13 04:37:19;;;;;;;91.18;84.40;;;15.10;99.90;;;;;;5131260;27;20050;-80
2023/08/13 04:39:45;;;;;;;93.72;86.75;;;15.10;99.90;;;;;;5131320;27;20380;-80
2023/08/13 04:42:11;;;;;;;82.28;76.35;;;15.20;99.90;;;;;;5131848;27;20110;-80
2023/08/13 04:44:38;;;;;;;103.85;96.60;;;15.20;99.90;;;;;;5150423;27;20460;-80
2023/08/13 04:47:04;;;;;;;72.60;67.00;;;15.30;99.90;;;;;;5131474;27;20043;-80
2023/08/13 04:49:29;;;;;;;84.18;77.35;;;15.40;99.90;;;;;;5132556;27;20091;-79
2023/08/13 04:51:55;;;;;;;80.50;74.68;;;15.50;99.90;;;;;;5149627;27;20034;-80
2023/08/13 04:54:21;;;;;;;90.65;84.22;;;15.50;99.90;;;;;;5114250;27;20031;-80
2023/08/13 04:56:46;;;;;;;49.35;45.65;;;15.60;99.90;;;;;;5131571;27;20488;-80
2023/08/13 04:59:12;;;;;;;44.63;40.70;;;15.60;99.90;;;;;;5131451;27;20049;-80
2023/08/13 05:01:37;;;;;;;42.05;37.33;;;15.70;99.90;;;;;;5114224;27;20049;-80
2023/08/13 05:04:03;;;;;;;27.38;24.90;;;15.80;99.90;;;;;;5114289;27;20119;-80
2023/08/13 05:06:29;;;;;;;82.15;76.18;;;15.80;99.90;;;;;;5130816;27;20041;-80
2023/08/13 05:08:54;;;;;;;35.58;32.60;;;15.90;99.90;;;;;;5131859;27;20041;-80
2023/08/13 05:11:20;;;;;;;23.65;21.23;;;15.90;99.90;;;;;;5134779;27;20038;-80
2023/08/13 05:13:46;;;;;;;25.27;17.95;;;15.90;99.90;;;;;;5152073;27;20045;-80
2023/08/13 05:16:11;;;;;;;19.15;12.35;;;15.90;99.90;;;;;;5170843;27;20567;-80
2023/08/13 05:18:37;;;;;;;50.75;47.03;;;16.00;99.90;;;;;;5134953;27;20255;-80
2023/08/13 05:21:05;;;;;;;31.77;26.13;;;16.00;99.90;;;;;;5151415;27;20065;-80
2023/08/13 05:23:34;;;;;;;31.67;28.63;;;16.10;99.90;;;;;;5117345;27;20122;-80
2023/08/13 05:26:00;;;;;;;37.65;34.35;;;16.20;99.90;;;;;;5131021;27;20049;-80
2023/08/13 05:28:25;;;;;;;43.33;39.55;;;16.20;99.90;;;;;;5133932;27;20042;-80
2023/08/13 05:30:51;;;;;;;43.30;38.47;;;16.20;99.90;;;;;;5117919;27;20034;-80
2023/08/13 05:33:17;;;;;;;20.30;13.95;;;16.30;99.90;;;;;;5134873;27;20441;-80
2023/08/13 05:35:42;;;;;;;31.75;27.48;;;16.40;99.90;;;;;;5134307;27;20035;-80
2023/08/13 05:38:10;;;;;;;29.60;24.95;;;16.50;99.90;;;;;;5144714;27;20073;-80
2023/08/13 05:40:36;;;;;;;38.90;35.35;;;16.60;99.90;;;;;;5155319;27;20042;-80
2023/08/13 05:43:02;;;;;;;34.85;32.15;;;16.70;99.90;;;;;;5174149;27;20053;-80
2023/08/13 05:45:28;;;;;;;24.05;14.23;;;16.80;99.90;;;;;;5138136;27;20488;-80
2023/08/13 05:47:53;;;;;;;28.80;22.85;;;16.90;99.90;;;;;;5155349;27;20052;-81
2023/08/13 05:50:19;;;;;;;24.33;21.88;;;16.90;99.90;;;;;;5154799;27;20065;-80
2023/08/13 05:52:45;;;;;;;22.48;18.30;;;17.00;99.90;;;;;;5146092;27;20121;-80
2023/08/13 05:55:10;;;;;;;19.48;15.27;;;17.00;99.90;;;;;;5117022;27;20046;-80
2023/08/13 05:57:36;;;;;;;21.60;15.35;;;17.00;99.90;;;;;;5134436;27;20041;-80
2023/08/13 06:00:07;;;;;;;20.92;15.63;;;17.10;99.90;;;;;;5117292;27;20504;-80
2023/08/13 06:02:33;;;;;;;17.05;13.65;;;17.10;99.90;;;;;;5117094;27;20125;-80
2023/08/13 06:04:58;;;;;;;20.30;13.85;;;17.10;99.90;;;;;;5133763;27;20074;-79
2023/08/13 06:07:24;;;;;;;25.77;12.35;;;17.20;99.90;;;;;;5141927;27;20070;-80
2023/08/13 06:09:49;;;;;;;25.15;15.52;;;17.10;99.90;;;;;;5137892;27;20574;-80
2023/08/13 06:12:15;;;;;;;23.15;17.08;;;17.30;99.90;;;;;;5154844;27;20133;-80
2023/08/13 06:14:42;;;;;;;21.92;17.40;;;17.20;99.90;;;;;;5137488;27;20091;-80
2023/08/13 06:17:08;;;;;;;19.92;17.30;;;17.20;99.90;;;;;;5137290;27;20038;-80
2023/08/13 06:19:34;;;;;;;18.35;16.42;;;17.30;99.90;;;;;;5136545;27;20105;-80
2023/08/13 06:21:59;;;;;;;19.27;17.45;;;17.30;99.90;;;;;;5152795;27;20399;-80
2023/08/13 06:24:25;;;;;;;24.83;19.83;;;17.50;99.90;;;;;;5154555;27;20472;-80
2023/08/13 06:26:50;;;;;;;25.55;23.05;;;17.60;99.90;;;;;;5152840;27;20160;-80
2023/08/13 06:29:16;;;;;;;30.13;27.08;;;17.80;99.90;;;;;;5137295;27;20026;-80
2023/08/13 06:31:42;;;;;;;27.92;25.20;;;17.90;99.90;;;;;;5154753;27;20031;-80
2023/08/13 06:34:07;;;;;;;22.92;18.40;;;18.00;99.90;;;;;;5136801;27;20175;-80
2023/08/13 06:36:33;;;;;;;37.50;34.28;;;18.50;99.90;;;;;;5154357;27;20046;-81
2023/08/13 06:38:59;;;;;;;26.48;23.75;;;19.00;99.90;;;;;;5137168;27;20049;-80
2023/08/13 06:41:24;;;;;;;48.38;44.67;;;19.70;99.90;;;;;;5124988;27;20035;-81
2023/08/13 06:43:50;;;;;;;58.22;54.17;;;21.00;99.90;;;;;;5133535;27;20539;-80
2023/08/13 06:46:15;;;;;;;38.65;35.55;;;22.50;99.90;;;;;;5133771;27;20477;-81
2023/08/13 06:48:41;;;;;;;14.00;12.55;;;23.80;99.90;;;;;;5133267;27;20416;-80
2023/08/13 06:51:11;;;;;;;18.60;16.75;;;25.00;99.90;;;;;;5151938;27;20244;-81
2023/08/13 06:53:37;;;;;;;26.10;23.58;;;26.10;99.90;;;;;;5133498;27;20042;-81
2023/08/13 06:56:03;;;;;;;23.05;21.00;;;26.60;99.90;;;;;;5162797;27;20038;-80
2023/08/13 06:58:28;;;;;;;66.93;62.45;;;25.90;99.90;;;;;;5136881;27;20030;-81
2023/08/13 07:00:54;;;;;;;46.80;43.42;;;25.00;99.90;;;;;;5153900;27;20571;-81
2023/08/13 07:03:20;;;;;;;55.80;52.05;;;24.30;99.90;;;;;;5153400;27;20395;-80
2023/08/13 07:05:45;;;;;;;63.70;58.88;;;23.70;99.90;;;;;;5136413;27;20034;-81
2023/08/13 07:08:11;;;;;;;59.00;54.95;;;23.10;99.90;;;;;;5172587;27;20087;-80
2023/08/13 07:10:38;;;;;;;54.65;50.70;;;22.70;99.90;;;;;;5143969;27;20039;-80
2023/08/13 07:13:04;;;;;;;47.33;43.72;;;22.50;99.90;;;;;;5151422;27;20119;-81
2023/08/13 07:15:30;;;;;;;66.72;62.15;;;22.40;99.90;;;;;;5133258;27;20388;-81
2023/08/13 07:17:56;;;;;;;115.22;107.30;;;22.20;99.90;;;;;;5132329;27;20045;-81
2023/08/13 07:20:22;;;;;;;199.60;186.05;;;22.00;99.90;;;;;;5115144;27;20043;-81
2023/08/13 07:22:48;;;;;;;269.98;249.88;;;22.20;99.90;;;;;;5132790;27;20342;-81
2023/08/13 07:25:13;;;;;;;405.70;373.88;;;23.10;99.90;;;;;;5136462;27;20300;-81
2023/08/13 07:27:40;;;;;;;401.35;365.65;;;24.10;99.90;;;;;;5135959;27;20483;-81
2023/08/13 07:30:08;;;;;;;490.90;444.92;;;24.70;99.90;;;;;;5153424;27;20038;-81
2023/08/13 07:32:35;;;;;;;661.00;597.40;;;24.60;99.90;;;;;;5135626;27;20526;-81
2023/08/13 07:35:01;;;;;;;608.47;552.33;;;24.70;99.90;;;;;;5153530;27;20121;-81
2023/08/13 07:37:27;;;;;;;753.70;675.85;;;25.30;99.90;;;;;;5171912;27;20038;-80
2023/08/13 07:39:54;;;;;;;867.95;775.03;;;25.90;99.90;;;;;;5152942;27;20045;-81
2023/08/13 07:42:20;;;;;;;912.92;790.10;;;26.80;99.90;;;;;;5171953;27;20035;-81
2023/08/13 07:44:47;;;;;;;1258.30;896.95;;;27.10;99.90;;;;;;5153206;27;20137;-81
2023/08/13 07:47:14;;;;;;;1169.03;876.72;;;27.40;99.90;;;;;;5152793;27;20433;-81
2023/08/13 07:49:39;;;;;;;1638.97;960.17;;;27.60;99.90;;;;;;5135286;27;20030;-81
2023/08/13 07:52:05;;;;;;;1683.55;982.40;;;27.40;99.90;;;;;;5153023;27;20373;-81
2023/08/13 07:54:31;;;;;;;1510.57;929.85;;;27.80;99.90;;;;;;5150922;27;20090;-81
2023/08/13 07:56:56;;;;;;;1999.90;999.90;;;27.80;99.90;;;;;;5132064;27;20062;-81
2023/08/13 07:59:22;;;;;;;1999.90;999.90;;;28.00;99.90;;;;;;5131977;27;20070;-81
2023/08/13 08:01:49;;;;;;;1999.90;997.75;;;27.90;99.90;;;;;;5131422;27;20047;-81
2023/08/13 08:04:15;;;;;;;1999.90;998.60;;;27.70;99.90;;;;;;5131986;27;20050;-81
2023/08/13 08:06:40;;;;;;;1999.90;999.90;;;27.40;99.90;;;;;;5132122;27;20392;-81
2023/08/13 08:09:06;;;;;;;1999.90;999.90;;;26.90;99.90;;;;;;5114971;27;20188;-80
2023/08/13 08:11:32;;;;;;;1999.90;999.90;;;26.30;99.90;;;;;;5136302;27;20536;-81
2023/08/13 08:13:58;;;;;;;1999.90;999.90;;;25.70;99.90;;;;;;5171318;27;20034;-81
2023/08/13 08:16:23;;;;;;;1999.90;999.90;;;26.20;99.90;;;;;;5114620;27;20420;-81
2023/08/13 08:18:49;;;;;;;1999.90;999.90;;;26.80;99.90;;;;;;5132244;27;20034;-80
2023/08/13 08:21:15;;;;;;;1999.90;999.90;;;27.20;99.90;;;;;;5128112;27;20128;-81
2023/08/13 08:23:40;;;;;;;1999.90;999.90;;;27.70;99.90;;;;;;5129753;28;20489;-81
2023/08/13 08:26:06;;;;;;;1999.90;907.50;;;28.10;99.90;;;;;;5128625;28;20038;-81
2023/08/13 08:28:32;;;;;;;1999.90;944.30;;;28.20;99.90;;;;;;5128531;28;20094;-81
2023/08/13 08:30:57;;;;;;;1999.90;903.08;;;28.40;99.90;;;;;;5127950;27;20051;-81
2023/08/13 08:33:23;;;;;;;1999.90;763.83;;;28.50;99.90;;;;;;5128172;28;20039;-81
2023/08/13 08:35:49;;;;;;;1999.90;674.45;;;28.50;99.90;;;;;;5129724;28;20039;-81
2023/08/13 08:38:15;;;;;;;1999.90;758.35;;;28.00;99.90;;;;;;5128411;28;20031;-80
2023/08/13 08:40:48;;;;;;;1999.90;571.63;;;28.10;99.90;;;;;;5128086;28;20070;-81
2023/08/13 08:43:16;;;;;;;1999.90;764.80;;;27.90;99.90;;;;;;5129455;27;20043;-81
2023/08/13 08:45:43;;;;;;;1999.90;816.83;;;27.20;99.90;;;;;;5146592;27;20083;-81
2023/08/13 08:48:11;;;;;;;1999.90;617.05;;;26.80;99.90;;;;;;5150292;27;20062;-81
2023/08/13 08:50:37;;;;;;;1999.90;611.95;;;26.60;99.90;;;;;;5150016;27;20523;-81
2023/08/13 08:53:03;;;;;;;1999.90;835.13;;;26.50;99.90;;;;;;5148847;27;20041;-81
2023/08/13 08:55:30;;;;;;;1200.40;257.35;;;26.40;99.90;;;;;;5131842;27;20456;-81
2023/08/13 08:57:56;;;;;;;1999.90;704.33;;;26.20;99.90;;;;;;5130891;27;20035;-81
2023/08/13 09:00:21;;;;;;;1999.90;657.97;;;25.90;99.90;;;;;;5131228;27;20473;-80
2023/08/13 09:02:48;;;;;;;1974.85;527.33;;;26.00;99.90;;;;;;5151959;27;20042;-80
2023/08/13 09:05:15;;;;;;;1999.90;602.72;;;26.10;99.90;;;;;;5152788;27;20039;-80
2023/08/13 09:07:44;;;;;;;1999.90;656.05;;;26.20;99.90;;;;;;5135378;27;20078;-81
2023/08/13 09:10:10;;;;;;;1999.90;862.35;;;26.40;99.90;;;;;;5135543;27;20034;-81
2023/08/13 09:12:38;;;;;;;1999.90;999.90;;;26.60;99.90;;;;;;5134695;27;20034;-80
2023/08/13 09:15:09;;;;;;;1999.90;999.90;;;26.60;99.90;;;;;;5135313;27;20051;-80
2023/08/13 09:17:35;;;;;;;1831.80;373.00;;;27.10;99.90;;;;;;5114843;27;20126;-81
2023/08/13 09:20:18;;;;;;;975.35;187.43;;;27.40;99.90;;;;;;5131403;27;20130;-81
2023/08/13 09:22:48;;;;;;;1862.15;831.40;;;27.40;99.90;;;;;;5131725;27;20118;-81
2023/08/13 09:25:14;;;;;;;1999.90;545.05;;;26.60;99.90;;;;;;5131387;27;20039;-81
2023/08/13 09:27:41;;;;;;;1999.90;725.53;;;25.90;99.90;;;;;;5132579;27;20046;-80
2023/08/13 09:30:12;;;;;;;1999.90;779.63;;;25.50;99.90;;;;;;5132864;27;20034;-81
2023/08/13 09:32:40;;;;;;;1999.90;908.00;;;25.10;99.90;;;;;;5131863;27;20213;-81
2023/08/13 09:35:06;;;;;;;1999.90;998.15;;;24.80;99.90;;;;;;5131590;27;20130;-80
2023/08/13 09:37:32;;;;;;;1999.90;956.80;;;24.80;99.90;;;;;;5132528;27;20110;-80
2023/08/13 09:39:57;;;;;;;1999.90;973.10;;;25.30;99.90;;;;;;5132805;27;20035;-80
2023/08/13 09:42:23;;;;;;;1999.90;999.90;;;25.20;99.90;;;;;;5113716;27;20400;-80
2023/08/13 09:44:51;;;;;;;1999.90;990.70;;;25.30;99.90;;;;;;5132652;27;20122;-80
2023/08/13 09:47:22;;;;;;;1999.90;971.60;;;25.30;99.90;;;;;;5131564;27;20031;-80
2023/08/13 09:49:48;;;;;;;1999.90;985.15;;;25.00;99.90;;;;;;5131260;27;20092;-80
2023/08/13 09:52:17;;;;;;;1999.90;999.90;;;24.90;99.90;;;;;;5131089;27;20039;-80
2023/08/13 09:54:48;;;;;;;1999.90;995.95;;;25.10;99.90;;;;;;5131033;27;20049;-81
2023/08/13 09:57:20;;;;;;;1999.90;939.00;;;25.20;99.90;;;;;;5132237;27;20035;-80
2023/08/13 09:59:47;;;;;;;1999.90;996.60;;;25.20;99.90;;;;;;5132195;27;20043;-80
2023/08/13 10:02:14;;;;;;;1999.90;970.25;;;25.20;99.90;;;;;;5130814;27;20041;-80
2023/08/13 10:04:40;;;;;;;1999.90;999.90;;;25.10;99.90;;;;;;5130708;27;20087;-80
2023/08/13 10:07:06;;;;;;;1999.90;999.90;;;25.30;99.90;;;;;;5131054;27;20031;-80
2023/08/13 10:09:33;;;;;;;1999.90;926.13;;;25.40;99.90;;;;;;5113394;27;20349;-80
2023/08/13 10:12:01;;;;;;;1999.90;731.83;;;25.40;99.90;;;;;;5131505;27;20528;-80
2023/08/13 10:14:27;;;;;;;1999.90;925.15;;;25.50;99.90;;;;;;5114355;27;20493;-81
2023/08/13 10:16:53;;;;;;;1999.90;588.63;;;25.40;99.90;;;;;;5130650;27;20060;-80
2023/08/13 10:19:27;;;;;;;1999.90;929.88;;;25.20;99.90;;;;;;5115265;27;20156;-80
2023/08/13 10:21:56;;;;;;;1999.90;832.92;;;25.10;99.90;;;;;;5116607;27;20078;-80
2023/08/13 10:24:23;;;;;;;1999.90;922.53;;;24.90;99.90;;;;;;5152602;27;20030;-80
2023/08/13 10:26:49;;;;;;;1999.90;947.50;;;25.00;99.90;;;;;;5133453;27;20030;-81
2023/08/13 10:29:19;;;;;;;1999.90;841.35;;;25.00;99.90;;;;;;5153826;27;20453;-80
2023/08/13 10:31:52;;;;;;;1999.90;883.60;;;25.10;99.90;;;;;;5133788;27;20054;-80
2023/08/13 10:34:18;;;;;;;1999.90;931.78;;;25.20;99.90;;;;;;5152110;27;20070;-80
2023/08/13 10:36:50;;;;;;;1999.90;948.88;;;25.40;99.90;;;;;;5116512;27;20030;-81
2023/08/13 10:39:32;;;;;;;1999.90;864.67;;;25.70;99.90;;;;;;5133805;27;20392;-80
2023/08/13 10:41:59;;;;;;;1999.90;525.10;;;26.00;99.90;;;;;;5133735;27;20405;-80
2023/08/13 10:44:42;;;;;;;1999.90;886.28;;;26.20;99.90;;;;;;5160423;27;20555;-80
2023/08/13 10:47:08;;;;;;;1784.32;809.65;;;26.00;99.90;;;;;;5136814;27;20042;-80
2023/08/13 10:49:35;;;;;;;1754.03;625.65;;;25.70;99.90;;;;;;5154033;27;20041;-81
2023/08/13 10:52:01;;;;;;;1892.40;450.67;;;25.60;99.90;;;;;;5137115;27;20034;-81
2023/08/13 10:54:27;;;;;;;1999.90;999.90;;;25.70;99.90;;;;;;5153586;27;20034;-80
2023/08/13 10:56:58;;;;;;;1999.90;999.90;;;25.60;99.90;;;;;;5173292;27;20563;-81
2023/08/13 10:59:38;;;;;;;1999.90;999.90;;;25.70;99.90;;;;;;5153872;27;20038;-81
2023/08/13 11:02:19;;;;;;;1999.90;999.90;;;26.00;99.90;;;;;;5134864;27;20045;-81
2023/08/13 11:04:45;;;;;;;1999.90;999.90;;;26.20;99.90;;;;;;5136476;27;20042;-81
2023/08/13 11:07:13;;;;;;;1999.90;999.90;;;26.50;99.90;;;;;;5153950;27;20046;-80
2023/08/13 11:09:40;;;;;;;1999.90;999.90;;;26.80;99.90;;;;;;5153527;27;20035;-81
2023/08/13 11:12:08;;;;;;;1999.90;999.90;;;26.80;99.90;;;;;;5136209;27;20498;-80
2023/08/13 11:14:35;;;;;;;1999.90;999.90;;;26.60;99.90;;;;;;5151832;27;20512;-80
2023/08/13 11:17:01;;;;;;;1999.90;999.90;;;26.40;99.90;;;;;;5153905;27;20034;-81
2023/08/13 11:19:27;;;;;;;1999.90;999.90;;;26.30;99.90;;;;;;5172015;27;20141;-81
2023/08/13 11:21:54;;;;;;;1999.90;999.90;;;26.10;99.90;;;;;;5172109;27;20092;-81
2023/08/13 11:24:21;;;;;;;1999.90;999.90;;;26.10;99.90;;;;;;5152623;27;20034;-80
2023/08/13 11:26:49;;;;;;;1999.90;999.90;;;26.10;99.90;;;;;;5153182;27;20031;-81
2023/08/13 11:29:18;;;;;;;1999.90;999.90;;;26.00;99.90;;;;;;5151962;27;20038;-80
2023/08/13 11:31:45;;;;;;;1999.90;999.90;;;26.00;99.90;;;;;;5136006;27;20042;-80
2023/08/13 11:34:11;;;;;;;1999.90;999.90;;;25.90;99.90;;;;;;5153384;27;20083;-80
2023/08/13 11:36:37;;;;;;;1999.90;999.90;;;25.80;99.90;;;;;;5135924;27;20396;-80
2023/08/13 11:39:03;;;;;;;1999.90;999.90;;;25.70;99.90;;;;;;5153060;27;20109;-80
2023/08/13 11:41:29;;;;;;;1999.90;999.90;;;25.70;99.90;;;;;;5136128;27;20034;-80
2023/08/13 11:43:55;;;;;;;1999.90;999.90;;;25.60;99.90;;;;;;5151798;27;20169;-80
2023/08/13 11:46:21;;;;;;;1999.90;999.90;;;25.70;99.90;;;;;;5171860;27;20502;-80
2023/08/13 11:48:53;;;;;;;1999.90;999.90;;;25.70;99.90;;;;;;5135967;27;20228;-80
2023/08/13 11:51:23;;;;;;;1999.90;999.90;;;25.60;99.90;;;;;;5153185;27;20077;-80
2023/08/13 11:53:49;;;;;;;1999.90;999.90;;;25.60;99.90;;;;;;5152775;27;20042;-80
2023/08/13 11:56:17;;;;;;;1999.90;999.90;;;25.60;99.90;;;;;;5152984;27;20034;-80
2023/08/13 11:58:43;;;;;;;1999.90;999.90;;;25.40;99.90;;;;;;5162036;27;20301;-80
2023/08/13 12:01:13;;;;;;;1999.90;999.90;;;25.30;99.90;;;;;;5132206;27;20049;-80
2023/08/13 12:03:41;;;;;;;1999.90;999.90;;;25.20;99.90;;;;;;5150847;27;20489;-81
2023/08/13 12:06:08;;;;;;;1999.90;999.90;;;25.20;99.90;;;;;;5114843;27;20042;-80
2023/08/13 12:08:34;;;;;;;1999.90;999.90;;;25.40;99.90;;;;;;5114315;27;20045;-80
2023/08/13 12:11:00;;;;;;;1999.90;999.90;;;25.40;99.90;;;;;;5131918;27;20039;-80
2023/08/13 12:13:28;;;;;;;1999.90;999.90;;;25.60;99.90;;;;;;5135726;27;20057;-80